sensor_id;sensor_type;location;lat;lon;timestamp;temperature;humidity
29453;DHT22;16424;50.956;5.320;2024-03-07T00:00:57;5.80;99.90
29453;DHT22;16424;50.956;5.320;2024-03-07T00:03:24;5.80;99.90
29453;DHT22;16424;50.956;5.320;2024-03-07T00:05:50;5.80;99.90
29453;DHT22;16424;50.956;5.320;2024-03-07T00:08:15;5.80;99.90
29453;DHT22;16424;50.956;5.320;2024-03-07T00:10:41;5.80;99.90
29453;DHT22;16424;50.956;5.320;2024-03-07T00:13:09;5.80;99.90
29453;DHT22;16424;50.956;5.320;2024-03-07T00:15:35;5.80;99.90
29453;DHT22;16424;50.956;5.320;2024-03-07T00:18:01;5.70;99.90
29453;DHT22;16424;50.956;5.320;2024-03-07T00:20:27;5.70;99.90
29453;DHT22;16424;50.956;5.320;2024-03-07T00:22:52;5.70;99.90
29453;DHT22;16424;50.956;5.320;2024-03-07T00:25:18;5.70;99.90
29453;DHT22;16424;50.956;5.320;2024-03-07T00:27:45;5.60;99.90
29453;DHT22;16424;50.956;5.320;2024-03-07T00:30:11;5.60;99.90
29453;DHT22;16424;50.956;5.320;2024-03-07T00:32:39;5.60;99.90
29453;DHT22;16424;50.956;5.320;2024-03-07T00:35:06;5.60;99.90
29453;DHT22;16424;50.956;5.320;2024-03-07T00:37:34;5.60;99.90
29453;DHT22;16424;50.956;5.320;2024-03-07T00:40:00;5.60;99.90
29453;DHT22;16424;50.956;5.320;2024-03-07T00:42:26;5.60;99.90
29453;DHT22;16424;50.956;5.320;2024-03-07T00:44:52;5.60;99.90
29453;DHT22;16424;50.956;5.320;2024-03-07T00:47:18;5.60;99.90
29453;DHT22;16424;50.956;5.320;2024-03-07T00:49:45;5.70;99.90
29453;DHT22;16424;50.956;5.320;2024-03-07T00:52:13;5.70;99.90
29453;DHT22;16424;50.956;5.320;2024-03-07T00:54:39;5.70;99.90
29453;DHT22;16424;50.956;5.320;2024-03-07T00:57:05;5.80;99.90
29453;DHT22;16424;50.956;5.320;2024-03-07T00:59:31;5.70;99.90
29453;DHT22;16424;50.956;5.320;2024-03-07T01:01:56;5.70;99.90
29453;DHT22;16424;50.956;5.320;2024-03-07T01:04:22;5.80;99.90
29453;DHT22;16424;50.956;5.320;2024-03-07T01:06:48;5.70;99.90
29453;DHT22;16424;50.956;5.320;2024-03-07T01:09:14;5.70;99.90
29453;DHT22;16424;50.956;5.320;2024-03-07T01:11:43;5.70;99.90
29453;DHT22;16424;50.956;5.320;2024-03-07T01:14:10;5.70;99.90
29453;DHT22;16424;50.956;5.320;2024-03-07T01:16:36;5.70;99.90
29453;DHT22;16424;50.956;5.320;2024-03-07T01:19:02;5.60;99.90
29453;DHT22;16424;50.956;5.320;2024-03-07T01:21:34;5.70;99.90
29453;DHT22;16424;50.956;5.320;2024-03-07T01:24:00;5.70;99.90
29453;DHT22;16424;50.956;5.320;2024-03-07T01:26:28;5.60;99.90
29453;DHT22;16424;50.956;5.320;2024-03-07T01:28:57;5.60;99.90
29453;DHT22;16424;50.956;5.320;2024-03-07T01:31:24;5.60;99.90
29453;DHT22;16424;50.956;5.320;2024-03-07T01:33:50;5.60;99.90
29453;DHT22;16424;50.956;5.320;2024-03-07T01:36:15;5.60;99.90
29453;DHT22;16424;50.956;5.320;2024-03-07T01:38:41;5.60;99.90
29453;DHT22;16424;50.956;5.320;2024-03-07T01:41:07;5.50;99.90
29453;DHT22;16424;50.956;5.320;2024-03-07T01:43:34;5.60;99.90
29453;DHT22;16424;50.956;5.320;2024-03-07T01:46:00;5.60;99.90
29453;DHT22;16424;50.956;5.320;2024-03-07T01:48:29;5.60;99.90
29453;DHT22;16424;50.956;5.320;2024-03-07T01:51:00;5.60;99.90
29453;DHT22;16424;50.956;5.320;2024-03-07T01:53:27;5.50;99.90
29453;DHT22;16424;50.956;5.320;2024-03-07T01:55:53;5.60;99.90
29453;DHT22;16424;50.956;5.320;2024-03-07T01:58:22;5.60;99.90
29453;DHT22;16424;50.956;5.320;2024-03-07T02:00:49;5.60;99.90
29453;DHT22;16424;50.956;5.320;2024-03-07T02:03:15;5.70;99.90
29453;DHT22;16424;50.956;5.320;2024-03-07T02:05:41;5.70;99.90
29453;DHT22;16424;50.956;5.320;2024-03-07T02:08:07;5.70;99.90
29453;DHT22;16424;50.956;5.320;2024-03-07T02:10:33;5.80;99.90
29453;DHT22;16424;50.956;5.320;2024-03-07T02:12:58;5.80;99.90
29453;DHT22;16424;50.956;5.320;2024-03-07T02:15:26;5.80;99.90
29453;DHT22;16424;50.956;5.320;2024-03-07T02:17:52;5.90;99.90
29453;DHT22;16424;50.956;5.320;2024-03-07T02:20:18;5.90;99.90
29453;DHT22;16424;50.956;5.320;2024-03-07T02:22:44;5.90;99.90
29453;DHT22;16424;50.956;5.320;2024-03-07T02:25:09;5.90;99.90
29453;DHT22;16424;50.956;5.320;2024-03-07T02:27:36;5.90;99.90
29453;DHT22;16424;50.956;5.320;2024-03-07T02:30:02;5.90;99.90
29453;DHT22;16424;50.956;5.320;2024-03-07T02:32:31;5.80;99.90
29453;DHT22;16424;50.956;5.320;2024-03-07T02:34:57;5.90;99.90
29453;DHT22;16424;50.956;5.320;2024-03-07T02:37:22;5.80;99.90
29453;DHT22;16424;50.956;5.320;2024-03-07T02:39:48;5.70;99.90
29453;DHT22;16424;50.956;5.320;2024-03-07T02:42:14;5.70;99.90
29453;DHT22;16424;50.956;5.320;2024-03-07T02:44:39;5.70;99.90
29453;DHT22;16424;50.956;5.320;2024-03-07T02:47:06;5.60;99.90
29453;DHT22;16424;50.956;5.320;2024-03-07T02:49:32;5.50;99.90
29453;DHT22;16424;50.956;5.320;2024-03-07T02:51:58;5.50;99.90
29453;DHT22;16424;50.956;5.320;2024-03-07T02:54:23;5.50;99.90
29453;DHT22;16424;50.956;5.320;2024-03-07T02:56:49;5.40;99.90
29453;DHT22;16424;50.956;5.320;2024-03-07T02:59:15;5.40;99.90
29453;DHT22;16424;50.956;5.320;2024-03-07T03:01:42;5.40;99.90
29453;DHT22;16424;50.956;5.320;2024-03-07T03:04:08;5.40;99.90
29453;DHT22;16424;50.956;5.320;2024-03-07T03:06:33;5.30;99.90
29453;DHT22;16424;50.956;5.320;2024-03-07T03:08:59;5.30;99.90
29453;DHT22;16424;50.956;5.320;2024-03-07T03:11:25;5.30;99.90
29453;DHT22;16424;50.956;5.320;2024-03-07T03:13:51;5.20;99.90
29453;DHT22;16424;50.956;5.320;2024-03-07T03:16:17;5.20;99.90
29453;DHT22;16424;50.956;5.320;2024-03-07T03:18:43;5.20;99.90
29453;DHT22;16424;50.956;5.320;2024-03-07T03:21:09;5.20;99.90
29453;DHT22;16424;50.956;5.320;2024-03-07T03:23:34;5.20;99.90
29453;DHT22;16424;50.956;5.320;2024-03-07T03:26:01;5.20;99.90
29453;DHT22;16424;50.956;5.320;2024-03-07T03:28:26;5.20;99.90
29453;DHT22;16424;50.956;5.320;2024-03-07T03:30:52;5.20;99.90
29453;DHT22;16424;50.956;5.320;2024-03-07T03:33:18;5.20;99.90
29453;DHT22;16424;50.956;5.320;2024-03-07T03:35:46;5.20;99.90
29453;DHT22;16424;50.956;5.320;2024-03-07T03:38:12;5.20;99.90
29453;DHT22;16424;50.956;5.320;2024-03-07T03:40:38;5.20;99.90
29453;DHT22;16424;50.956;5.320;2024-03-07T03:43:03;5.20;99.90
29453;DHT22;16424;50.956;5.320;2024-03-07T03:45:29;5.30;99.90
29453;DHT22;16424;50.956;5.320;2024-03-07T03:47:57;5.30;99.90
29453;DHT22;16424;50.956;5.320;2024-03-07T03:50:23;5.30;99.90
29453;DHT22;16424;50.956;5.320;2024-03-07T03:52:48;5.20;99.90
29453;DHT22;16424;50.956;5.320;2024-03-07T03:55:14;5.20;99.90
29453;DHT22;16424;50.956;5.320;2024-03-07T03:57:42;5.30;99.90
29453;DHT22;16424;50.956;5.320;2024-03-07T04:00:09;5.30;99.90
29453;DHT22;16424;50.956;5.320;2024-03-07T04:02:42;5.30;99.90
29453;DHT22;16424;50.956;5.320;2024-03-07T04:05:10;5.40;99.90
29453;DHT22;16424;50.956;5.320;2024-03-07T04:07:37;5.40;99.90
29453;DHT22;16424;50.956;5.320;2024-03-07T04:10:03;5.40;99.90
29453;DHT22;16424;50.956;5.320;2024-03-07T04:12:29;5.40;99.90
29453;DHT22;16424;50.956;5.320;2024-03-07T04:14:55;5.30;99.90
29453;DHT22;16424;50.956;5.320;2024-03-07T04:17:21;5.40;99.90
29453;DHT22;16424;50.956;5.320;2024-03-07T04:19:47;5.40;99.90
29453;DHT22;16424;50.956;5.320;2024-03-07T04:22:14;5.40;99.90
29453;DHT22;16424;50.956;5.320;2024-03-07T04:24:41;5.40;99.90
29453;DHT22;16424;50.956;5.320;2024-03-07T04:27:06;5.30;99.90
29453;DHT22;16424;50.956;5.320;2024-03-07T04:29:33;5.30;99.90
29453;DHT22;16424;50.956;5.320;2024-03-07T04:32:03;5.30;99.90
29453;DHT22;16424;50.956;5.320;2024-03-07T04:34:29;5.20;99.90
29453;DHT22;16424;50.956;5.320;2024-03-07T04:36:59;5.10;99.90
29453;DHT22;16424;50.956;5.320;2024-03-07T04:39:29;5.10;99.90
29453;DHT22;16424;50.956;5.320;2024-03-07T04:42:01;5.20;99.90
29453;DHT22;16424;50.956;5.320;2024-03-07T04:44:28;5.20;99.90
29453;DHT22;16424;50.956;5.320;2024-03-07T04:46:54;5.20;99.90
29453;DHT22;16424;50.956;5.320;2024-03-07T04:49:24;5.30;99.90
29453;DHT22;16424;50.956;5.320;2024-03-07T04:51:51;5.50;99.90
29453;DHT22;16424;50.956;5.320;2024-03-07T04:54:20;5.40;99.90
29453;DHT22;16424;50.956;5.320;2024-03-07T04:56:46;5.30;99.90
29453;DHT22;16424;50.956;5.320;2024-03-07T04:59:13;5.30;99.90
29453;DHT22;16424;50.956;5.320;2024-03-07T05:01:39;5.20;99.90
29453;DHT22;16424;50.956;5.320;2024-03-07T05:04:06;5.20;99.90
29453;DHT22;16424;50.956;5.320;2024-03-07T05:06:32;5.30;99.90
29453;DHT22;16424;50.956;5.320;2024-03-07T05:09:03;5.30;99.90
29453;DHT22;16424;50.956;5.320;2024-03-07T05:11:30;5.30;99.90
29453;DHT22;16424;50.956;5.320;2024-03-07T05:13:56;5.20;99.90
29453;DHT22;16424;50.956;5.320;2024-03-07T05:16:24;5.20;99.90
29453;DHT22;16424;50.956;5.320;2024-03-07T05:18:50;5.20;99.90
29453;DHT22;16424;50.956;5.320;2024-03-07T05:21:16;5.20;99.90
29453;DHT22;16424;50.956;5.320;2024-03-07T05:24:01;5.20;99.90
29453;DHT22;16424;50.956;5.320;2024-03-07T05:26:28;5.20;99.90
29453;DHT22;16424;50.956;5.320;2024-03-07T05:28:53;5.40;99.90
29453;DHT22;16424;50.956;5.320;2024-03-07T05:31:22;5.40;99.90
29453;DHT22;16424;50.956;5.320;2024-03-07T05:33:48;5.30;99.90
29453;DHT22;16424;50.956;5.320;2024-03-07T05:36:14;5.30;99.90
29453;DHT22;16424;50.956;5.320;2024-03-07T05:38:43;5.40;99.90
29453;DHT22;16424;50.956;5.320;2024-03-07T05:41:12;5.40;99.90
29453;DHT22;16424;50.956;5.320;2024-03-07T05:43:40;5.40;99.90
29453;DHT22;16424;50.956;5.320;2024-03-07T05:46:06;5.40;99.90
29453;DHT22;16424;50.956;5.320;2024-03-07T05:48:36;5.30;99.90
29453;DHT22;16424;50.956;5.320;2024-03-07T05:51:02;5.20;99.90
29453;DHT22;16424;50.956;5.320;2024-03-07T05:53:28;5.20;99.90
29453;DHT22;16424;50.956;5.320;2024-03-07T05:55:54;5.20;99.90
29453;DHT22;16424;50.956;5.320;2024-03-07T05:58:20;5.20;99.90
29453;DHT22;16424;50.956;5.320;2024-03-07T06:00:48;5.10;99.90
29453;DHT22;16424;50.956;5.320;2024-03-07T06:03:19;5.20;99.90
29453;DHT22;16424;50.956;5.320;2024-03-07T06:05:48;5.30;99.90
29453;DHT22;16424;50.956;5.320;2024-03-07T06:08:18;5.40;99.90
29453;DHT22;16424;50.956;5.320;2024-03-07T06:10:47;5.30;99.90
29453;DHT22;16424;50.956;5.320;2024-03-07T06:13:14;5.40;99.90
29453;DHT22;16424;50.956;5.320;2024-03-07T06:15:44;5.40;99.90
29453;DHT22;16424;50.956;5.320;2024-03-07T06:18:10;5.40;99.90
29453;DHT22;16424;50.956;5.320;2024-03-07T06:20:36;5.40;99.90
29453;DHT22;16424;50.956;5.320;2024-03-07T06:23:03;5.30;99.90
29453;DHT22;16424;50.956;5.320;2024-03-07T06:25:31;5.30;99.90
29453;DHT22;16424;50.956;5.320;2024-03-07T06:28:13;5.30;99.90
29453;DHT22;16424;50.956;5.320;2024-03-07T06:30:40;5.30;99.90
29453;DHT22;16424;50.956;5.320;2024-03-07T06:33:06;5.40;99.90
29453;DHT22;16424;50.956;5.320;2024-03-07T06:35:33;5.40;99.90
29453;DHT22;16424;50.956;5.320;2024-03-07T06:38:06;5.40;99.90
29453;DHT22;16424;50.956;5.320;2024-03-07T06:40:32;5.40;99.90
29453;DHT22;16424;50.956;5.320;2024-03-07T06:42:59;5.40;99.90
29453;DHT22;16424;50.956;5.320;2024-03-07T06:45:25;5.40;99.90
29453;DHT22;16424;50.956;5.320;2024-03-07T06:47:51;5.50;99.90
29453;DHT22;16424;50.956;5.320;2024-03-07T06:50:19;5.50;99.90
29453;DHT22;16424;50.956;5.320;2024-03-07T06:52:49;5.60;99.90
29453;DHT22;16424;50.956;5.320;2024-03-07T06:55:18;5.60;99.90
29453;DHT22;16424;50.956;5.320;2024-03-07T06:57:44;5.70;99.90
29453;DHT22;16424;50.956;5.320;2024-03-07T07:00:12;5.80;99.90
29453;DHT22;16424;50.956;5.320;2024-03-07T07:02:41;5.90;99.90
29453;DHT22;16424;50.956;5.320;2024-03-07T07:05:07;6.00;99.90
29453;DHT22;16424;50.956;5.320;2024-03-07T07:07:39;6.30;99.90
29453;DHT22;16424;50.956;5.320;2024-03-07T07:10:07;6.50;99.90
29453;DHT22;16424;50.956;5.320;2024-03-07T07:12:38;6.70;99.90
29453;DHT22;16424;50.956;5.320;2024-03-07T07:15:04;6.70;99.90
29453;DHT22;16424;50.956;5.320;2024-03-07T07:17:30;7.00;99.90
29453;DHT22;16424;50.956;5.320;2024-03-07T07:19:57;7.10;99.90
29453;DHT22;16424;50.956;5.320;2024-03-07T07:22:25;7.50;99.90
29453;DHT22;16424;50.956;5.320;2024-03-07T07:24:50;7.90;99.90
29453;DHT22;16424;50.956;5.320;2024-03-07T07:27:16;8.00;99.90
29453;DHT22;16424;50.956;5.320;2024-03-07T07:29:44;8.40;99.90
29453;DHT22;16424;50.956;5.320;2024-03-07T07:32:09;8.90;99.90
29453;DHT22;16424;50.956;5.320;2024-03-07T07:34:38;9.00;99.90
29453;DHT22;16424;50.956;5.320;2024-03-07T07:37:04;9.30;99.90
29453;DHT22;16424;50.956;5.320;2024-03-07T07:39:30;9.50;99.90
29453;DHT22;16424;50.956;5.320;2024-03-07T07:41:57;9.60;99.90
29453;DHT22;16424;50.956;5.320;2024-03-07T07:44:22;9.80;99.90
29453;DHT22;16424;50.956;5.320;2024-03-07T07:46:48;10.20;99.90
29453;DHT22;16424;50.956;5.320;2024-03-07T07:49:15;10.20;99.90
29453;DHT22;16424;50.956;5.320;2024-03-07T07:51:41;10.30;99.90
29453;DHT22;16424;50.956;5.320;2024-03-07T07:54:07;10.20;99.90
29453;DHT22;16424;50.956;5.320;2024-03-07T07:56:35;9.90;99.90
29453;DHT22;16424;50.956;5.320;2024-03-07T07:59:01;10.20;99.90
29453;DHT22;16424;50.956;5.320;2024-03-07T08:01:28;10.10;99.90
29453;DHT22;16424;50.956;5.320;2024-03-07T08:03:54;10.00;99.90
29453;DHT22;16424;50.956;5.320;2024-03-07T08:06:20;10.10;99.90
29453;DHT22;16424;50.956;5.320;2024-03-07T08:08:46;10.10;99.90
29453;DHT22;16424;50.956;5.320;2024-03-07T08:11:11;10.10;99.90
29453;DHT22;16424;50.956;5.320;2024-03-07T08:13:40;10.60;99.90
29453;DHT22;16424;50.956;5.320;2024-03-07T08:16:06;10.90;99.90
29453;DHT22;16424;50.956;5.320;2024-03-07T08:18:32;10.50;99.90
29453;DHT22;16424;50.956;5.320;2024-03-07T08:20:58;10.20;99.90
29453;DHT22;16424;50.956;5.320;2024-03-07T08:23:24;10.60;99.90
29453;DHT22;16424;50.956;5.320;2024-03-07T08:25:54;10.90;99.90
29453;DHT22;16424;50.956;5.320;2024-03-07T08:28:20;11.00;99.90
29453;DHT22;16424;50.956;5.320;2024-03-07T08:30:46;11.00;99.90
29453;DHT22;16424;50.956;5.320;2024-03-07T08:33:11;10.60;99.90
29453;DHT22;16424;50.956;5.320;2024-03-07T08:35:39;10.20;99.90
29453;DHT22;16424;50.956;5.320;2024-03-07T08:38:05;10.30;99.90
29453;DHT22;16424;50.956;5.320;2024-03-07T08:40:31;10.40;99.90
29453;DHT22;16424;50.956;5.320;2024-03-07T08:42:58;10.50;99.90
29453;DHT22;16424;50.956;5.320;2024-03-07T08:45:25;10.50;99.90
29453;DHT22;16424;50.956;5.320;2024-03-07T08:47:52;10.40;99.90
29453;DHT22;16424;50.956;5.320;2024-03-07T08:50:22;9.70;99.90
29453;DHT22;16424;50.956;5.320;2024-03-07T08:52:49;10.00;99.90
29453;DHT22;16424;50.956;5.320;2024-03-07T08:55:16;10.10;99.90
29453;DHT22;16424;50.956;5.320;2024-03-07T08:57:43;10.20;99.90
29453;DHT22;16424;50.956;5.320;2024-03-07T09:00:12;10.30;99.90
29453;DHT22;16424;50.956;5.320;2024-03-07T09:02:50;10.30;99.90
29453;DHT22;16424;50.956;5.320;2024-03-07T09:05:22;11.10;99.90
29453;DHT22;16424;50.956;5.320;2024-03-07T09:07:49;11.70;99.90
29453;DHT22;16424;50.956;5.320;2024-03-07T09:10:15;11.90;99.90
29453;DHT22;16424;50.956;5.320;2024-03-07T09:12:41;12.00;99.90
29453;DHT22;16424;50.956;5.320;2024-03-07T09:15:08;11.50;99.90
29453;DHT22;16424;50.956;5.320;2024-03-07T09:17:37;11.80;99.90
29453;DHT22;16424;50.956;5.320;2024-03-07T09:20:07;12.20;99.90
29453;DHT22;16424;50.956;5.320;2024-03-07T09:22:41;12.40;99.90
29453;DHT22;16424;50.956;5.320;2024-03-07T09:25:07;12.40;99.90
29453;DHT22;16424;50.956;5.320;2024-03-07T09:27:33;12.50;99.90
29453;DHT22;16424;50.956;5.320;2024-03-07T09:29:59;11.90;99.90
29453;DHT22;16424;50.956;5.320;2024-03-07T09:32:25;11.50;99.90
29453;DHT22;16424;50.956;5.320;2024-03-07T09:34:50;11.80;99.90
29453;DHT22;16424;50.956;5.320;2024-03-07T09:37:16;11.90;99.90
29453;DHT22;16424;50.956;5.320;2024-03-07T09:39:43;11.50;99.90
29453;DHT22;16424;50.956;5.320;2024-03-07T09:42:09;11.10;99.90
29453;DHT22;16424;50.956;5.320;2024-03-07T09:44:42;11.40;99.90
29453;DHT22;16424;50.956;5.320;2024-03-07T09:47:09;11.70;99.90
29453;DHT22;16424;50.956;5.320;2024-03-07T09:49:36;11.90;99.90
29453;DHT22;16424;50.956;5.320;2024-03-07T09:52:06;11.60;99.90
29453;DHT22;16424;50.956;5.320;2024-03-07T09:54:34;11.60;99.90
29453;DHT22;16424;50.956;5.320;2024-03-07T09:57:02;11.20;99.90
29453;DHT22;16424;50.956;5.320;2024-03-07T09:59:28;11.10;99.90
29453;DHT22;16424;50.956;5.320;2024-03-07T10:01:57;11.50;99.90
29453;DHT22;16424;50.956;5.320;2024-03-07T10:04:46;11.20;99.90
29453;DHT22;16424;50.956;5.320;2024-03-07T10:07:16;11.00;99.90
29453;DHT22;16424;50.956;5.320;2024-03-07T10:09:43;10.50;99.90
29453;DHT22;16424;50.956;5.320;2024-03-07T10:12:09;10.40;99.90
29453;DHT22;16424;50.956;5.320;2024-03-07T10:14:38;10.50;99.90
29453;DHT22;16424;50.956;5.320;2024-03-07T10:17:04;10.70;99.90
29453;DHT22;16424;50.956;5.320;2024-03-07T10:19:30;11.10;99.90
29453;DHT22;16424;50.956;5.320;2024-03-07T10:21:56;11.10;99.90
29453;DHT22;16424;50.956;5.320;2024-03-07T10:24:27;10.90;99.90
29453;DHT22;16424;50.956;5.320;2024-03-07T10:26:54;10.70;99.90
29453;DHT22;16424;50.956;5.320;2024-03-07T10:29:22;10.60;99.90
29453;DHT22;16424;50.956;5.320;2024-03-07T10:31:49;10.40;99.90
29453;DHT22;16424;50.956;5.320;2024-03-07T10:34:15;10.40;99.90
29453;DHT22;16424;50.956;5.320;2024-03-07T10:36:44;10.50;99.90
29453;DHT22;16424;50.956;5.320;2024-03-07T10:39:11;10.50;99.90
29453;DHT22;16424;50.956;5.320;2024-03-07T10:41:49;10.20;99.90
29453;DHT22;16424;50.956;5.320;2024-03-07T10:44:25;10.10;99.90
29453;DHT22;16424;50.956;5.320;2024-03-07T10:46:58;10.00;99.90
29453;DHT22;16424;50.956;5.320;2024-03-07T10:49:31;10.30;99.90
29453;DHT22;16424;50.956;5.320;2024-03-07T10:52:06;10.50;99.90
29453;DHT22;16424;50.956;5.320;2024-03-07T10:54:48;10.50;99.90
29453;DHT22;16424;50.956;5.320;2024-03-07T10:57:51;10.50;99.90
29453;DHT22;16424;50.956;5.320;2024-03-07T11:00:26;10.60;99.90
29453;DHT22;16424;50.956;5.320;2024-03-07T11:03:02;10.40;99.90
29453;DHT22;16424;50.956;5.320;2024-03-07T11:05:33;10.40;99.90
29453;DHT22;16424;50.956;5.320;2024-03-07T11:08:00;10.40;99.90
29453;DHT22;16424;50.956;5.320;2024-03-07T11:10:30;10.40;99.90
29453;DHT22;16424;50.956;5.320;2024-03-07T11:12:57;10.60;99.90
29453;DHT22;16424;50.956;5.320;2024-03-07T11:15:24;10.70;99.90
29453;DHT22;16424;50.956;5.320;2024-03-07T11:17:54;10.80;99.90
29453;DHT22;16424;50.956;5.320;2024-03-07T11:20:25;10.90;99.90
29453;DHT22;16424;50.956;5.320;2024-03-07T11:22:51;11.00;99.90
29453;DHT22;16424;50.956;5.320;2024-03-07T11:25:19;10.80;99.90
29453;DHT22;16424;50.956;5.320;2024-03-07T11:28:00;10.70;99.90
29453;DHT22;16424;50.956;5.320;2024-03-07T11:30:26;10.50;99.90
29453;DHT22;16424;50.956;5.320;2024-03-07T11:32:53;10.30;99.90
29453;DHT22;16424;50.956;5.320;2024-03-07T11:35:20;10.50;99.90
29453;DHT22;16424;50.956;5.320;2024-03-07T11:37:58;10.60;99.90
29453;DHT22;16424;50.956;5.320;2024-03-07T11:42:52;10.80;99.90
29453;DHT22;16424;50.956;5.320;2024-03-07T11:45:20;10.90;99.90
29453;DHT22;16424;50.956;5.320;2024-03-07T11:47:54;10.80;99.90
29453;DHT22;16424;50.956;5.320;2024-03-07T11:50:32;10.40;99.90
29453;DHT22;16424;50.956;5.320;2024-03-07T11:53:01;10.40;99.90
29453;DHT22;16424;50.956;5.320;2024-03-07T11:55:27;10.50;99.90
29453;DHT22;16424;50.956;5.320;2024-03-07T11:58:09;10.60;99.90
29453;DHT22;16424;50.956;5.320;2024-03-07T12:00:38;10.40;99.90
29453;DHT22;16424;50.956;5.320;2024-03-07T12:03:08;10.40;99.90
29453;DHT22;16424;50.956;5.320;2024-03-07T12:05:41;10.30;99.90
29453;DHT22;16424;50.956;5.320;2024-03-07T12:08:07;10.30;99.90
29453;DHT22;16424;50.956;5.320;2024-03-07T12:10:36;10.20;99.90
29453;DHT22;16424;50.956;5.320;2024-03-07T12:13:02;10.30;99.90
29453;DHT22;16424;50.956;5.320;2024-03-07T12:15:29;10.30;99.90
29453;DHT22;16424;50.956;5.320;2024-03-07T12:17:55;10.40;99.90
29453;DHT22;16424;50.956;5.320;2024-03-07T12:20:23;10.50;99.90
29453;DHT22;16424;50.956;5.320;2024-03-07T12:22:56;10.60;99.90
29453;DHT22;16424;50.956;5.320;2024-03-07T12:25:22;10.70;99.90
29453;DHT22;16424;50.956;5.320;2024-03-07T12:30:53;11.10;99.90
29453;DHT22;16424;50.956;5.320;2024-03-07T12:33:20;11.10;99.90
29453;DHT22;16424;50.956;5.320;2024-03-07T12:35:53;11.00;99.90
29453;DHT22;16424;50.956;5.320;2024-03-07T12:38:21;10.80;99.90
29453;DHT22;16424;50.956;5.320;2024-03-07T12:41:09;10.90;99.90
29453;DHT22;16424;50.956;5.320;2024-03-07T12:43:42;11.00;99.90
29453;DHT22;16424;50.956;5.320;2024-03-07T12:46:10;11.10;99.90
29453;DHT22;16424;50.956;5.320;2024-03-07T12:48:37;11.00;99.90
29453;DHT22;16424;50.956;5.320;2024-03-07T12:51:04;11.00;99.90
29453;DHT22;16424;50.956;5.320;2024-03-07T12:53:30;11.00;99.90
29453;DHT22;16424;50.956;5.320;2024-03-07T12:55:57;11.20;99.90
29453;DHT22;16424;50.956;5.320;2024-03-07T12:58:23;11.20;99.90
29453;DHT22;16424;50.956;5.320;2024-03-07T13:00:55;11.20;99.90
29453;DHT22;16424;50.956;5.320;2024-03-07T13:03:21;11.10;99.90
29453;DHT22;16424;50.956;5.320;2024-03-07T13:05:47;11.30;99.90
29453;DHT22;16424;50.956;5.320;2024-03-07T13:08:13;11.60;99.90
29453;DHT22;16424;50.956;5.320;2024-03-07T13:10:42;11.50;99.90
29453;DHT22;16424;50.956;5.320;2024-03-07T13:13:08;11.50;99.90
29453;DHT22;16424;50.956;5.320;2024-03-07T13:15:40;11.40;99.90
29453;DHT22;16424;50.956;5.320;2024-03-07T13:18:08;11.50;99.90
29453;DHT22;16424;50.956;5.320;2024-03-07T13:20:35;11.30;99.90
29453;DHT22;16424;50.956;5.320;2024-03-07T13:23:02;11.10;99.90
29453;DHT22;16424;50.956;5.320;2024-03-07T13:25:28;11.20;99.90
29453;DHT22;16424;50.956;5.320;2024-03-07T13:28:09;11.20;99.90
29453;DHT22;16424;50.956;5.320;2024-03-07T13:30:43;11.30;99.90
29453;DHT22;16424;50.956;5.320;2024-03-07T13:33:09;11.40;99.90
29453;DHT22;16424;50.956;5.320;2024-03-07T13:35:39;11.60;99.90
29453;DHT22;16424;50.956;5.320;2024-03-07T13:38:06;11.50;99.90
29453;DHT22;16424;50.956;5.320;2024-03-07T13:40:32;11.60;99.90
29453;DHT22;16424;50.956;5.320;2024-03-07T13:43:00;11.90;99.90
29453;DHT22;16424;50.956;5.320;2024-03-07T13:45:34;11.70;99.90
29453;DHT22;16424;50.956;5.320;2024-03-07T13:48:10;11.60;99.90
29453;DHT22;16424;50.956;5.320;2024-03-07T13:50:39;11.90;99.90
29453;DHT22;16424;50.956;5.320;2024-03-07T13:53:09;12.10;99.90
29453;DHT22;16424;50.956;5.320;2024-03-07T14:23:45;11.70;99.90
29453;DHT22;16424;50.956;5.320;2024-03-07T14:29:47;12.00;99.90
29453;DHT22;16424;50.956;5.320;2024-03-07T14:32:14;11.80;99.90
29453;DHT22;16424;50.956;5.320;2024-03-07T14:35:08;11.80;99.90
29453;DHT22;16424;50.956;5.320;2024-03-07T14:40:41;11.70;99.90
29453;DHT22;16424;50.956;5.320;2024-03-07T14:43:10;11.90;99.90
29453;DHT22;16424;50.956;5.320;2024-03-07T14:45:40;12.00;99.90
29453;DHT22;16424;50.956;5.320;2024-03-07T14:48:07;12.00;99.90
29453;DHT22;16424;50.956;5.320;2024-03-07T14:50:39;11.90;99.90
29453;DHT22;16424;50.956;5.320;2024-03-07T14:53:06;11.90;99.90
29453;DHT22;16424;50.956;5.320;2024-03-07T14:55:33;12.00;99.90
29453;DHT22;16424;50.956;5.320;2024-03-07T14:57:59;12.00;99.90
29453;DHT22;16424;50.956;5.320;2024-03-07T15:00:26;11.90;99.90
29453;DHT22;16424;50.956;5.320;2024-03-07T15:02:53;11.90;99.90
29453;DHT22;16424;50.956;5.320;2024-03-07T15:05:24;11.90;99.90
29453;DHT22;16424;50.956;5.320;2024-03-07T15:07:53;11.90;99.90
29453;DHT22;16424;50.956;5.320;2024-03-07T15:10:28;12.00;99.90
29453;DHT22;16424;50.956;5.320;2024-03-07T15:12:56;12.00;99.90
29453;DHT22;16424;50.956;5.320;2024-03-07T15:15:21;11.90;99.90
29453;DHT22;16424;50.956;5.320;2024-03-07T15:17:50;11.80;99.90
29453;DHT22;16424;50.956;5.320;2024-03-07T15:20:16;11.70;99.90
29453;DHT22;16424;50.956;5.320;2024-03-07T15:22:54;11.90;99.90
29453;DHT22;16424;50.956;5.320;2024-03-07T15:25:21;11.70;99.90
29453;DHT22;16424;50.956;5.320;2024-03-07T15:27:50;11.60;99.90
29453;DHT22;16424;50.956;5.320;2024-03-07T15:30:17;11.60;99.90
29453;DHT22;16424;50.956;5.320;2024-03-07T15:32:44;11.60;99.90
29453;DHT22;16424;50.956;5.320;2024-03-07T15:35:11;11.60;99.90
29453;DHT22;16424;50.956;5.320;2024-03-07T15:37:46;11.70;99.90
29453;DHT22;16424;50.956;5.320;2024-03-07T15:40:17;11.90;99.90
29453;DHT22;16424;50.956;5.320;2024-03-07T15:42:47;12.00;99.90
29453;DHT22;16424;50.956;5.320;2024-03-07T15:45:18;11.70;99.90
29453;DHT22;16424;50.956;5.320;2024-03-07T15:50:20;11.40;99.90
29453;DHT22;16424;50.956;5.320;2024-03-07T15:52:50;11.40;99.90
29453;DHT22;16424;50.956;5.320;2024-03-07T15:55:19;11.30;99.90
29453;DHT22;16424;50.956;5.320;2024-03-07T15:57:56;11.30;99.90
29453;DHT22;16424;50.956;5.320;2024-03-07T16:00:26;11.30;99.90
29453;DHT22;16424;50.956;5.320;2024-03-07T16:03:03;11.30;99.90
29453;DHT22;16424;50.956;5.320;2024-03-07T16:05:40;11.40;99.90
29453;DHT22;16424;50.956;5.320;2024-03-07T16:08:10;11.30;99.90
29453;DHT22;16424;50.956;5.320;2024-03-07T16:10:40;11.20;99.90
29453;DHT22;16424;50.956;5.320;2024-03-07T16:13:11;11.00;99.90
29453;DHT22;16424;50.956;5.320;2024-03-07T16:15:41;10.90;99.90
29453;DHT22;16424;50.956;5.320;2024-03-07T16:18:11;11.00;99.90
29453;DHT22;16424;50.956;5.320;2024-03-07T16:20:37;11.00;99.90
29453;DHT22;16424;50.956;5.320;2024-03-07T16:23:03;11.10;99.90
29453;DHT22;16424;50.956;5.320;2024-03-07T16:25:30;11.00;99.90